sensor_id;sensor_type;location;lat;lon;timestamp;P1;durP1;ratioP1;P2;durP2;ratioP2
10479;SDS011;12789;42.610;23.040;2024-03-17T00:01:56;18.77;;;15.63;;
10479;SDS011;12789;42.610;23.040;2024-03-17T00:04:24;19.53;;;14.30;;
10479;SDS011;12789;42.610;23.040;2024-03-17T00:06:52;20.37;;;15.17;;
10479;SDS011;12789;42.610;23.040;2024-03-17T00:09:18;28.07;;;17.20;;
10479;SDS011;12789;42.610;23.040;2024-03-17T00:11:45;25.67;;;15.73;;
10479;SDS011;12789;42.610;23.040;2024-03-17T00:14:11;24.53;;;15.80;;
10479;SDS011;12789;42.610;23.040;2024-03-17T00:16:37;23.20;;;16.03;;
10479;SDS011;12789;42.610;23.040;2024-03-17T00:19:04;31.97;;;18.23;;
10479;SDS011;12789;42.610;23.040;2024-03-17T00:21:32;25.13;;;16.80;;
10479;SDS011;12789;42.610;23.040;2024-03-17T00:23:58;26.63;;;17.37;;
10479;SDS011;12789;42.610;23.040;2024-03-17T00:26:25;25.57;;;16.47;;
10479;SDS011;12789;42.610;23.040;2024-03-17T00:28:50;28.03;;;17.67;;
10479;SDS011;12789;42.610;23.040;2024-03-17T00:31:17;31.40;;;18.37;;
10479;SDS011;12789;42.610;23.040;2024-03-17T00:33:43;30.73;;;18.43;;
10479;SDS011;12789;42.610;23.040;2024-03-17T00:36:11;28.80;;;18.87;;
10479;SDS011;12789;42.610;23.040;2024-03-17T00:38:38;28.03;;;19.13;;
10479;SDS011;12789;42.610;23.040;2024-03-17T00:41:05;28.07;;;19.17;;
10479;SDS011;12789;42.610;23.040;2024-03-17T00:43:31;29.90;;;19.67;;
10479;SDS011;12789;42.610;23.040;2024-03-17T00:45:58;29.83;;;19.53;;
10479;SDS011;12789;42.610;23.040;2024-03-17T00:48:24;26.10;;;18.17;;
10479;SDS011;12789;42.610;23.040;2024-03-17T00:50:54;25.50;;;16.83;;
10479;SDS011;12789;42.610;23.040;2024-03-17T00:53:20;27.43;;;17.13;;
10479;SDS011;12789;42.610;23.040;2024-03-17T00:55:51;23.87;;;17.03;;
10479;SDS011;12789;42.610;23.040;2024-03-17T00:58:17;25.70;;;16.50;;
10479;SDS011;12789;42.610;23.040;2024-03-17T01:00:44;28.30;;;17.63;;
10479;SDS011;12789;42.610;23.040;2024-03-17T01:03:09;25.97;;;16.53;;
10479;SDS011;12789;42.610;23.040;2024-03-17T01:05:37;26.53;;;16.77;;
10479;SDS011;12789;42.610;23.040;2024-03-17T01:08:07;25.20;;;15.40;;
10479;SDS011;12789;42.610;23.040;2024-03-17T01:10:36;23.07;;;16.10;;
10479;SDS011;12789;42.610;23.040;2024-03-17T01:13:03;20.13;;;15.33;;
10479;SDS011;12789;42.610;23.040;2024-03-17T01:15:30;23.87;;;15.87;;
10479;SDS011;12789;42.610;23.040;2024-03-17T01:17:56;20.40;;;15.83;;
10479;SDS011;12789;42.610;23.040;2024-03-17T01:20:22;20.40;;;15.47;;
10479;SDS011;12789;42.610;23.040;2024-03-17T01:22:48;23.63;;;16.47;;
10479;SDS011;12789;42.610;23.040;2024-03-17T01:25:15;22.63;;;16.13;;
10479;SDS011;12789;42.610;23.040;2024-03-17T01:27:41;22.93;;;16.70;;
10479;SDS011;12789;42.610;23.040;2024-03-17T01:30:12;26.33;;;17.33;;
10479;SDS011;12789;42.610;23.040;2024-03-17T01:32:37;26.50;;;17.17;;
10479;SDS011;12789;42.610;23.040;2024-03-17T01:35:04;26.97;;;17.53;;
10479;SDS011;12789;42.610;23.040;2024-03-17T01:37:31;24.23;;;17.47;;
10479;SDS011;12789;42.610;23.040;2024-03-17T01:39:57;28.83;;;17.30;;
10479;SDS011;12789;42.610;23.040;2024-03-17T01:42:23;25.63;;;17.47;;
10479;SDS011;12789;42.610;23.040;2024-03-17T01:44:50;24.87;;;17.23;;
10479;SDS011;12789;42.610;23.040;2024-03-17T01:47:17;26.37;;;17.90;;
10479;SDS011;12789;42.610;23.040;2024-03-17T01:49:44;25.90;;;18.17;;
10479;SDS011;12789;42.610;23.040;2024-03-17T01:52:10;27.63;;;18.17;;
10479;SDS011;12789;42.610;23.040;2024-03-17T01:54:37;30.63;;;19.10;;
10479;SDS011;12789;42.610;23.040;2024-03-17T01:57:03;29.17;;;18.23;;
10479;SDS011;12789;42.610;23.040;2024-03-17T01:59:30;30.40;;;18.40;;
10479;SDS011;12789;42.610;23.040;2024-03-17T02:01:56;25.73;;;18.10;;
10479;SDS011;12789;42.610;23.040;2024-03-17T02:04:24;31.10;;;19.73;;
10479;SDS011;12789;42.610;23.040;2024-03-17T02:06:49;35.30;;;20.77;;
10479;SDS011;12789;42.610;23.040;2024-03-17T02:09:16;36.10;;;22.07;;
10479;SDS011;12789;42.610;23.040;2024-03-17T02:11:43;44.30;;;22.37;;
10479;SDS011;12789;42.610;23.040;2024-03-17T02:14:10;42.50;;;21.53;;
10479;SDS011;12789;42.610;23.040;2024-03-17T02:16:39;34.47;;;20.13;;
10479;SDS011;12789;42.610;23.040;2024-03-17T02:19:05;36.23;;;20.80;;
10479;SDS011;12789;42.610;23.040;2024-03-17T02:21:32;36.77;;;21.20;;
10479;SDS011;12789;42.610;23.040;2024-03-17T02:24:00;37.20;;;20.97;;
10479;SDS011;12789;42.610;23.040;2024-03-17T02:26:28;33.60;;;20.10;;
10479;SDS011;12789;42.610;23.040;2024-03-17T02:28:55;37.00;;;20.13;;
10479;SDS011;12789;42.610;23.040;2024-03-17T02:31:20;37.93;;;20.83;;
10479;SDS011;12789;42.610;23.040;2024-03-17T02:33:47;36.40;;;21.83;;
10479;SDS011;12789;42.610;23.040;2024-03-17T02:36:13;39.83;;;20.10;;
10479;SDS011;12789;42.610;23.040;2024-03-17T02:38:42;34.77;;;21.70;;
10479;SDS011;12789;42.610;23.040;2024-03-17T02:41:28;31.00;;;19.67;;
10479;SDS011;12789;42.610;23.040;2024-03-17T02:43:55;34.97;;;20.67;;
10479;SDS011;12789;42.610;23.040;2024-03-17T02:46:21;35.97;;;20.30;;
10479;SDS011;12789;42.610;23.040;2024-03-17T02:48:51;37.47;;;22.73;;
10479;SDS011;12789;42.610;23.040;2024-03-17T02:51:19;32.50;;;22.10;;
10479;SDS011;12789;42.610;23.040;2024-03-17T02:53:46;38.30;;;22.77;;
10479;SDS011;12789;42.610;23.040;2024-03-17T02:56:13;40.20;;;23.07;;
10479;SDS011;12789;42.610;23.040;2024-03-17T02:58:45;44.33;;;24.70;;
10479;SDS011;12789;42.610;23.040;2024-03-17T03:01:12;36.43;;;23.80;;
10479;SDS011;12789;42.610;23.040;2024-03-17T03:03:40;38.43;;;24.10;;
10479;SDS011;12789;42.610;23.040;2024-03-17T03:06:07;41.23;;;23.83;;
10479;SDS011;12789;42.610;23.040;2024-03-17T03:08:36;36.70;;;23.37;;
10479;SDS011;12789;42.610;23.040;2024-03-17T03:11:05;35.40;;;22.57;;
10479;SDS011;12789;42.610;23.040;2024-03-17T03:13:32;36.20;;;21.57;;
10479;SDS011;12789;42.610;23.040;2024-03-17T03:16:00;30.53;;;21.17;;
10479;SDS011;12789;42.610;23.040;2024-03-17T03:18:27;27.47;;;18.53;;
10479;SDS011;12789;42.610;23.040;2024-03-17T03:20:54;29.13;;;18.60;;
10479;SDS011;12789;42.610;23.040;2024-03-17T03:23:20;31.03;;;18.67;;
10479;SDS011;12789;42.610;23.040;2024-03-17T03:25:47;32.23;;;18.83;;
10479;SDS011;12789;42.610;23.040;2024-03-17T03:28:14;27.33;;;18.53;;
10479;SDS011;12789;42.610;23.040;2024-03-17T03:30:40;27.70;;;17.57;;
10479;SDS011;12789;42.610;23.040;2024-03-17T03:33:08;28.33;;;17.67;;
10479;SDS011;12789;42.610;23.040;2024-03-17T03:35:35;29.40;;;18.10;;
10479;SDS011;12789;42.610;23.040;2024-03-17T03:38:02;31.73;;;18.23;;
10479;SDS011;12789;42.610;23.040;2024-03-17T03:40:29;31.63;;;18.47;;
10479;SDS011;12789;42.610;23.040;2024-03-17T03:42:55;31.00;;;18.77;;
10479;SDS011;12789;42.610;23.040;2024-03-17T03:45:22;26.50;;;17.30;;
10479;SDS011;12789;42.610;23.040;2024-03-17T03:47:49;30.03;;;18.20;;
10479;SDS011;12789;42.610;23.040;2024-03-17T03:50:19;29.20;;;17.80;;
10479;SDS011;12789;42.610;23.040;2024-03-17T03:52:46;27.40;;;19.00;;
10479;SDS011;12789;42.610;23.040;2024-03-17T03:55:12;29.37;;;19.00;;
10479;SDS011;12789;42.610;23.040;2024-03-17T03:57:40;34.73;;;20.60;;
10479;SDS011;12789;42.610;23.040;2024-03-17T04:00:07;30.47;;;20.07;;
10479;SDS011;12789;42.610;23.040;2024-03-17T04:02:37;33.17;;;19.53;;
10479;SDS011;12789;42.610;23.040;2024-03-17T04:05:04;29.93;;;20.43;;
10479;SDS011;12789;42.610;23.040;2024-03-17T04:07:32;31.37;;;20.50;;
10479;SDS011;12789;42.610;23.040;2024-03-17T04:09:59;30.73;;;19.80;;
10479;SDS011;12789;42.610;23.040;2024-03-17T04:12:26;30.30;;;20.53;;
10479;SDS011;12789;42.610;23.040;2024-03-17T04:14:56;31.90;;;19.63;;
10479;SDS011;12789;42.610;23.040;2024-03-17T04:17:23;29.03;;;19.17;;
10479;SDS011;12789;42.610;23.040;2024-03-17T04:19:49;28.47;;;18.73;;
10479;SDS011;12789;42.610;23.040;2024-03-17T04:22:16;29.17;;;18.40;;
10479;SDS011;12789;42.610;23.040;2024-03-17T04:24:44;30.53;;;18.47;;
10479;SDS011;12789;42.610;23.040;2024-03-17T04:27:11;28.77;;;18.77;;
10479;SDS011;12789;42.610;23.040;2024-03-17T04:29:39;30.43;;;18.63;;
10479;SDS011;12789;42.610;23.040;2024-03-17T04:32:05;30.30;;;19.00;;
10479;SDS011;12789;42.610;23.040;2024-03-17T04:34:32;24.37;;;18.03;;
10479;SDS011;12789;42.610;23.040;2024-03-17T04:36:59;32.53;;;20.03;;
10479;SDS011;12789;42.610;23.040;2024-03-17T04:39:28;32.20;;;19.50;;
10479;SDS011;12789;42.610;23.040;2024-03-17T04:41:56;30.53;;;19.70;;
10479;SDS011;12789;42.610;23.040;2024-03-17T04:44:22;36.47;;;20.60;;
10479;SDS011;12789;42.610;23.040;2024-03-17T04:46:49;33.37;;;19.67;;
10479;SDS011;12789;42.610;23.040;2024-03-17T04:49:16;30.17;;;20.20;;
10479;SDS011;12789;42.610;23.040;2024-03-17T04:51:42;32.10;;;18.77;;
10479;SDS011;12789;42.610;23.040;2024-03-17T04:54:09;27.83;;;18.13;;
10479;SDS011;12789;42.610;23.040;2024-03-17T04:56:36;28.07;;;17.60;;
10479;SDS011;12789;42.610;23.040;2024-03-17T04:59:05;24.97;;;17.37;;
10479;SDS011;12789;42.610;23.040;2024-03-17T05:01:31;27.57;;;18.80;;
10479;SDS011;12789;42.610;23.040;2024-03-17T05:04:01;33.17;;;19.90;;
10479;SDS011;12789;42.610;23.040;2024-03-17T05:06:28;28.83;;;18.13;;
10479;SDS011;12789;42.610;23.040;2024-03-17T05:08:55;28.03;;;18.77;;
10479;SDS011;12789;42.610;23.040;2024-03-17T05:11:21;34.17;;;19.90;;
10479;SDS011;12789;42.610;23.040;2024-03-17T05:13:49;39.50;;;22.97;;
10479;SDS011;12789;42.610;23.040;2024-03-17T05:16:17;37.97;;;23.33;;
10479;SDS011;12789;42.610;23.040;2024-03-17T05:18:43;41.60;;;24.80;;
10479;SDS011;12789;42.610;23.040;2024-03-17T05:21:10;43.80;;;25.87;;
10479;SDS011;12789;42.610;23.040;2024-03-17T05:23:37;39.83;;;23.97;;
10479;SDS011;12789;42.610;23.040;2024-03-17T05:26:04;37.00;;;24.27;;
10479;SDS011;12789;42.610;23.040;2024-03-17T05:28:30;37.03;;;23.67;;
10479;SDS011;12789;42.610;23.040;2024-03-17T05:30:57;38.47;;;22.87;;
10479;SDS011;12789;42.610;23.040;2024-03-17T05:33:25;38.93;;;22.70;;
10479;SDS011;12789;42.610;23.040;2024-03-17T05:35:52;44.30;;;23.53;;
10479;SDS011;12789;42.610;23.040;2024-03-17T05:38:19;43.63;;;25.30;;
10479;SDS011;12789;42.610;23.040;2024-03-17T05:40:55;45.30;;;25.90;;
10479;SDS011;12789;42.610;23.040;2024-03-17T05:43:22;43.03;;;25.10;;
10479;SDS011;12789;42.610;23.040;2024-03-17T05:45:49;43.00;;;25.90;;
10479;SDS011;12789;42.610;23.040;2024-03-17T05:48:16;42.73;;;25.47;;
10479;SDS011;12789;42.610;23.040;2024-03-17T05:50:44;39.77;;;24.00;;
10479;SDS011;12789;42.610;23.040;2024-03-17T05:53:11;41.40;;;24.57;;
10479;SDS011;12789;42.610;23.040;2024-03-17T05:55:37;40.03;;;25.20;;
10479;SDS011;12789;42.610;23.040;2024-03-17T05:58:06;36.40;;;22.50;;
10479;SDS011;12789;42.610;23.040;2024-03-17T06:00:34;37.27;;;21.67;;
10479;SDS011;12789;42.610;23.040;2024-03-17T06:03:00;34.30;;;20.50;;
10479;SDS011;12789;42.610;23.040;2024-03-17T06:05:27;44.67;;;22.60;;
10479;SDS011;12789;42.610;23.040;2024-03-17T06:07:55;37.30;;;23.20;;
10479;SDS011;12789;42.610;23.040;2024-03-17T06:10:22;44.60;;;24.70;;
10479;SDS011;12789;42.610;23.040;2024-03-17T06:12:49;49.07;;;25.97;;
10479;SDS011;12789;42.610;23.040;2024-03-17T06:15:16;68.33;;;29.27;;
10479;SDS011;12789;42.610;23.040;2024-03-17T06:17:42;64.50;;;29.10;;
10479;SDS011;12789;42.610;23.040;2024-03-17T06:20:09;78.40;;;30.53;;
10479;SDS011;12789;42.610;23.040;2024-03-17T06:22:38;71.93;;;32.70;;
10479;SDS011;12789;42.610;23.040;2024-03-17T06:25:06;68.73;;;31.10;;
10479;SDS011;12789;42.610;23.040;2024-03-17T06:27:33;74.73;;;31.67;;
10479;SDS011;12789;42.610;23.040;2024-03-17T06:30:00;109.13;;;52.47;;
10479;SDS011;12789;42.610;23.040;2024-03-17T06:32:29;150.77;;;59.47;;
10479;SDS011;12789;42.610;23.040;2024-03-17T06:34:55;75.43;;;33.27;;
10479;SDS011;12789;42.610;23.040;2024-03-17T06:37:22;73.40;;;33.03;;
10479;SDS011;12789;42.610;23.040;2024-03-17T06:39:49;54.03;;;29.37;;
10479;SDS011;12789;42.610;23.040;2024-03-17T06:42:17;50.53;;;23.37;;
10479;SDS011;12789;42.610;23.040;2024-03-17T06:44:43;65.60;;;30.77;;
10479;SDS011;12789;42.610;23.040;2024-03-17T06:47:10;71.73;;;29.87;;
10479;SDS011;12789;42.610;23.040;2024-03-17T06:49:36;72.80;;;29.47;;
10479;SDS011;12789;42.610;23.040;2024-03-17T06:52:03;67.90;;;30.20;;
10479;SDS011;12789;42.610;23.040;2024-03-17T06:54:30;66.80;;;28.13;;
10479;SDS011;12789;42.610;23.040;2024-03-17T06:56:57;64.40;;;28.47;;
10479;SDS011;12789;42.610;23.040;2024-03-17T06:59:25;57.70;;;28.47;;
10479;SDS011;12789;42.610;23.040;2024-03-17T07:01:52;61.37;;;28.90;;
10479;SDS011;12789;42.610;23.040;2024-03-17T07:04:19;56.50;;;27.93;;
10479;SDS011;12789;42.610;23.040;2024-03-17T07:06:46;49.87;;;27.60;;
10479;SDS011;12789;42.610;23.040;2024-03-17T07:09:12;53.30;;;26.67;;
10479;SDS011;12789;42.610;23.040;2024-03-17T07:11:39;47.53;;;25.50;;
10479;SDS011;12789;42.610;23.040;2024-03-17T07:14:05;38.23;;;20.43;;
10479;SDS011;12789;42.610;23.040;2024-03-17T07:16:33;40.00;;;20.13;;
10479;SDS011;12789;42.610;23.040;2024-03-17T07:19:01;38.60;;;20.37;;
10479;SDS011;12789;42.610;23.040;2024-03-17T07:21:27;42.17;;;21.87;;
10479;SDS011;12789;42.610;23.040;2024-03-17T07:23:54;42.83;;;19.53;;
10479;SDS011;12789;42.610;23.040;2024-03-17T07:26:21;37.20;;;19.30;;
10479;SDS011;12789;42.610;23.040;2024-03-17T07:28:47;40.60;;;18.13;;
10479;SDS011;12789;42.610;23.040;2024-03-17T07:31:14;35.67;;;18.10;;
10479;SDS011;12789;42.610;23.040;2024-03-17T07:33:42;37.87;;;18.93;;
10479;SDS011;12789;42.610;23.040;2024-03-17T07:36:09;36.60;;;18.57;;
10479;SDS011;12789;42.610;23.040;2024-03-17T07:38:36;33.17;;;17.73;;
10479;SDS011;12789;42.610;23.040;2024-03-17T07:41:03;38.17;;;18.83;;
10479;SDS011;12789;42.610;23.040;2024-03-17T07:43:31;41.10;;;19.57;;
10479;SDS011;12789;42.610;23.040;2024-03-17T07:46:02;42.93;;;19.87;;
10479;SDS011;12789;42.610;23.040;2024-03-17T07:48:29;41.97;;;19.37;;
10479;SDS011;12789;42.610;23.040;2024-03-17T07:50:58;77.63;;;50.63;;
10479;SDS011;12789;42.610;23.040;2024-03-17T07:53:26;48.90;;;23.63;;
10479;SDS011;12789;42.610;23.040;2024-03-17T07:55:59;23.57;;;14.13;;
10479;SDS011;12789;42.610;23.040;2024-03-17T07:58:26;20.57;;;12.63;;
10479;SDS011;12789;42.610;23.040;2024-03-17T08:00:52;46.13;;;27.07;;
10479;SDS011;12789;42.610;23.040;2024-03-17T08:03:19;35.73;;;22.67;;
10479;SDS011;12789;42.610;23.040;2024-03-17T08:05:48;25.77;;;16.00;;
10479;SDS011;12789;42.610;23.040;2024-03-17T08:08:17;25.07;;;14.53;;
10479;SDS011;12789;42.610;23.040;2024-03-17T08:10:44;25.03;;;14.07;;
10479;SDS011;12789;42.610;23.040;2024-03-17T08:13:11;29.70;;;15.30;;
10479;SDS011;12789;42.610;23.040;2024-03-17T08:15:41;22.20;;;13.77;;
10479;SDS011;12789;42.610;23.040;2024-03-17T08:18:07;28.03;;;13.23;;
10479;SDS011;12789;42.610;23.040;2024-03-17T08:20:36;23.30;;;13.53;;
10479;SDS011;12789;42.610;23.040;2024-03-17T08:23:02;23.63;;;13.93;;
10479;SDS011;12789;42.610;23.040;2024-03-17T08:25:30;23.07;;;13.50;;
10479;SDS011;12789;42.610;23.040;2024-03-17T08:27:57;23.33;;;13.33;;
10479;SDS011;12789;42.610;23.040;2024-03-17T08:30:23;15.53;;;10.13;;
10479;SDS011;12789;42.610;23.040;2024-03-17T08:32:50;14.03;;;9.00;;
10479;SDS011;12789;42.610;23.040;2024-03-17T08:35:16;12.43;;;8.73;;
10479;SDS011;12789;42.610;23.040;2024-03-17T08:37:43;14.20;;;10.40;;
10479;SDS011;12789;42.610;23.040;2024-03-17T08:40:10;21.80;;;10.90;;
10479;SDS011;12789;42.610;23.040;2024-03-17T08:42:38;15.03;;;9.37;;
10479;SDS011;12789;42.610;23.040;2024-03-17T08:45:05;15.77;;;9.93;;
10479;SDS011;12789;42.610;23.040;2024-03-17T08:47:33;13.40;;;9.57;;
10479;SDS011;12789;42.610;23.040;2024-03-17T08:49:59;145.97;;;94.43;;
10479;SDS011;12789;42.610;23.040;2024-03-17T08:52:29;13.65;;;10.07;;
10479;SDS011;12789;42.610;23.040;2024-03-17T08:54:57;10.40;;;7.60;;
10479;SDS011;12789;42.610;23.040;2024-03-17T08:57:23;10.55;;;8.00;;
10479;SDS011;12789;42.610;23.040;2024-03-17T08:59:51;27.70;;;18.70;;
10479;SDS011;12789;42.610;23.040;2024-03-17T09:02:18;9.30;;;7.38;;
10479;SDS011;12789;42.610;23.040;2024-03-17T09:04:46;10.70;;;7.80;;
10479;SDS011;12789;42.610;23.040;2024-03-17T09:07:12;10.55;;;7.20;;
10479;SDS011;12789;42.610;23.040;2024-03-17T09:09:40;7.78;;;6.50;;
10479;SDS011;12789;42.610;23.040;2024-03-17T09:12:07;7.43;;;6.30;;
10479;SDS011;12789;42.610;23.040;2024-03-17T09:14:34;8.23;;;6.30;;
10479;SDS011;12789;42.610;23.040;2024-03-17T09:17:03;7.80;;;5.68;;
10479;SDS011;12789;42.610;23.040;2024-03-17T09:19:30;6.45;;;5.80;;
10479;SDS011;12789;42.610;23.040;2024-03-17T09:21:58;8.05;;;6.28;;
10479;SDS011;12789;42.610;23.040;2024-03-17T09:24:25;7.30;;;5.95;;
10479;SDS011;12789;42.610;23.040;2024-03-17T09:26:52;10.25;;;5.97;;
10479;SDS011;12789;42.610;23.040;2024-03-17T09:29:18;6.68;;;5.68;;
10479;SDS011;12789;42.610;23.040;2024-03-17T09:31:45;6.22;;;5.65;;
10479;SDS011;12789;42.610;23.040;2024-03-17T09:34:13;7.55;;;6.00;;
10479;SDS011;12789;42.610;23.040;2024-03-17T09:36:40;7.68;;;4.68;;
10479;SDS011;12789;42.610;23.040;2024-03-17T09:39:06;5.68;;;5.07;;
10479;SDS011;12789;42.610;23.040;2024-03-17T09:41:33;6.80;;;5.40;;
10479;SDS011;12789;42.610;23.040;2024-03-17T09:44:00;5.78;;;4.68;;
10479;SDS011;12789;42.610;23.040;2024-03-17T09:46:26;4.38;;;3.97;;
10479;SDS011;12789;42.610;23.040;2024-03-17T09:48:57;5.22;;;4.72;;
10479;SDS011;12789;42.610;23.040;2024-03-17T09:51:25;6.80;;;4.30;;
10479;SDS011;12789;42.610;23.040;2024-03-17T09:53:52;10.88;;;4.57;;
10479;SDS011;12789;42.610;23.040;2024-03-17T09:56:18;9.48;;;4.18;;
10479;SDS011;12789;42.610;23.040;2024-03-17T09:58:45;4.88;;;3.30;;
10479;SDS011;12789;42.610;23.040;2024-03-17T10:01:12;5.05;;;3.47;;
10479;SDS011;12789;42.610;23.040;2024-03-17T10:03:39;4.88;;;4.47;;
10479;SDS011;12789;42.610;23.040;2024-03-17T10:06:05;6.80;;;4.47;;
10479;SDS011;12789;42.610;23.040;2024-03-17T10:08:33;6.00;;;4.80;;
10479;SDS011;12789;42.610;23.040;2024-03-17T10:11:00;10.15;;;5.05;;
10479;SDS011;12789;42.610;23.040;2024-03-17T10:13:27;7.22;;;5.07;;
10479;SDS011;12789;42.610;23.040;2024-03-17T10:15:53;8.20;;;6.03;;
10479;SDS011;12789;42.610;23.040;2024-03-17T10:18:20;5.95;;;5.35;;
10479;SDS011;12789;42.610;23.040;2024-03-17T10:20:48;7.10;;;4.60;;
10479;SDS011;12789;42.610;23.040;2024-03-17T10:23:18;5.55;;;4.70;;
10479;SDS011;12789;42.610;23.040;2024-03-17T10:25:46;6.13;;;4.53;;
10479;SDS011;12789;42.610;23.040;2024-03-17T10:28:13;4.70;;;4.28;;
10479;SDS011;12789;42.610;23.040;2024-03-17T10:30:40;5.10;;;4.60;;
10479;SDS011;12789;42.610;23.040;2024-03-17T10:33:08;5.72;;;5.03;;
10479;SDS011;12789;42.610;23.040;2024-03-17T10:35:47;5.65;;;4.95;;
10479;SDS011;12789;42.610;23.040;2024-03-17T10:38:14;9.77;;;6.13;;
10479;SDS011;12789;42.610;23.040;2024-03-17T10:40:41;7.20;;;4.93;;
10479;SDS011;12789;42.610;23.040;2024-03-17T10:43:09;6.10;;;5.40;;
10479;SDS011;12789;42.610;23.040;2024-03-17T10:45:36;5.68;;;4.57;;
10479;SDS011;12789;42.610;23.040;2024-03-17T10:48:05;5.15;;;4.35;;
10479;SDS011;12789;42.610;23.040;2024-03-17T10:50:35;4.93;;;3.80;;
10479;SDS011;12789;42.610;23.040;2024-03-17T10:53:03;3.90;;;3.50;;
10479;SDS011;12789;42.610;23.040;2024-03-17T10:55:43;7.50;;;5.43;;
10479;SDS011;12789;42.610;23.040;2024-03-17T10:58:16;4.75;;;3.88;;
10479;SDS011;12789;42.610;23.040;2024-03-17T11:00:46;4.45;;;4.05;;
10479;SDS011;12789;42.610;23.040;2024-03-17T11:03:13;5.13;;;4.45;;
10479;SDS011;12789;42.610;23.040;2024-03-17T11:05:40;5.35;;;4.45;;
10479;SDS011;12789;42.610;23.040;2024-03-17T11:08:07;5.93;;;4.35;;
10479;SDS011;12789;42.610;23.040;2024-03-17T11:10:41;5.40;;;4.68;;
10479;SDS011;12789;42.610;23.040;2024-03-17T11:13:23;5.03;;;4.53;;
10479;SDS011;12789;42.610;23.040;2024-03-17T11:15:50;4.28;;;3.92;;
10479;SDS011;12789;42.610;23.040;2024-03-17T11:23:57;7.82;;;5.55;;
10479;SDS011;12789;42.610;23.040;2024-03-17T11:26:28;5.80;;;4.15;;
10479;SDS011;12789;42.610;23.040;2024-03-17T11:28:56;4.93;;;4.15;;
10479;SDS011;12789;42.610;23.040;2024-03-17T11:34:28;8.65;;;4.70;;
10479;SDS011;12789;42.610;23.040;2024-03-17T11:36:54;7.82;;;4.60;;
10479;SDS011;12789;42.610;23.040;2024-03-17T11:39:21;4.97;;;4.30;;
10479;SDS011;12789;42.610;23.040;2024-03-17T11:42:07;7.38;;;5.72;;
10479;SDS011;12789;42.610;23.040;2024-03-17T11:44:43;11.82;;;7.95;;
10479;SDS011;12789;42.610;23.040;2024-03-17T11:47:09;7.03;;;5.90;;
10479;SDS011;12789;42.610;23.040;2024-03-17T11:49:36;6.97;;;4.35;;
10479;SDS011;12789;42.610;23.040;2024-03-17T11:52:03;9.50;;;7.47;;
10479;SDS011;12789;42.610;23.040;2024-03-17T11:54:32;7.25;;;6.05;;
10479;SDS011;12789;42.610;23.040;2024-03-17T11:57:00;5.32;;;3.78;;
10479;SDS011;12789;42.610;23.040;2024-03-17T11:59:27;3.67;;;3.35;;
10479;SDS011;12789;42.610;23.040;2024-03-17T12:01:54;5.38;;;4.85;;
10479;SDS011;12789;42.610;23.040;2024-03-17T12:04:21;5.80;;;4.60;;
10479;SDS011;12789;42.610;23.040;2024-03-17T12:06:47;6.18;;;5.53;;
10479;SDS011;12789;42.610;23.040;2024-03-17T12:09:17;4.78;;;4.35;;
10479;SDS011;12789;42.610;23.040;2024-03-17T12:11:43;7.20;;;5.30;;
10479;SDS011;12789;42.610;23.040;2024-03-17T12:14:16;7.35;;;5.55;;
10479;SDS011;12789;42.610;23.040;2024-03-17T12:16:49;11.38;;;5.65;;
10479;SDS011;12789;42.610;23.040;2024-03-17T12:19:18;7.57;;;6.53;;
10479;SDS011;12789;42.610;23.040;2024-03-17T12:21:44;7.82;;;5.63;;
10479;SDS011;12789;42.610;23.040;2024-03-17T12:24:16;4.88;;;4.40;;
10479;SDS011;12789;42.610;23.040;2024-03-17T12:26:42;4.47;;;4.07;;
10479;SDS011;12789;42.610;23.040;2024-03-17T12:29:24;6.05;;;4.18;;
10479;SDS011;12789;42.610;23.040;2024-03-17T12:31:51;4.70;;;4.15;;
10479;SDS011;12789;42.610;23.040;2024-03-17T12:34:19;6.32;;;5.30;;
10479;SDS011;12789;42.610;23.040;2024-03-17T12:36:45;6.75;;;4.75;;
10479;SDS011;12789;42.610;23.040;2024-03-17T12:39:15;7.93;;;5.22;;
10479;SDS011;12789;42.610;23.040;2024-03-17T12:41:43;7.70;;;5.85;;
10479;SDS011;12789;42.610;23.040;2024-03-17T12:44:19;6.38;;;5.68;;
10479;SDS011;12789;42.610;23.040;2024-03-17T12:46:46;9.75;;;7.85;;
10479;SDS011;12789;42.610;23.040;2024-03-17T12:49:12;12.15;;;6.78;;
10479;SDS011;12789;42.610;23.040;2024-03-17T12:51:39;7.72;;;5.35;;
10479;SDS011;12789;42.610;23.040;2024-03-17T12:54:13;6.47;;;5.03;;
10479;SDS011;12789;42.610;23.040;2024-03-17T12:56:38;5.63;;;5.13;;
10479;SDS011;12789;42.610;23.040;2024-03-17T12:59:22;6.03;;;5.43;;
10479;SDS011;12789;42.610;23.040;2024-03-17T13:02:06;8.02;;;6.18;;
10479;SDS011;12789;42.610;23.040;2024-03-17T13:04:35;7.70;;;6.00;;
10479;SDS011;12789;42.610;23.040;2024-03-17T13:07:10;12.25;;;7.28;;
10479;SDS011;12789;42.610;23.040;2024-03-17T13:09:37;7.15;;;5.93;;
10479;SDS011;12789;42.610;23.040;2024-03-17T13:12:11;6.60;;;5.60;;
10479;SDS011;12789;42.610;23.040;2024-03-17T13:14:38;8.50;;;6.10;;
10479;SDS011;12789;42.610;23.040;2024-03-17T13:17:05;10.68;;;7.15;;
10479;SDS011;12789;42.610;23.040;2024-03-17T13:19:33;9.20;;;7.05;;
10479;SDS011;12789;42.610;23.040;2024-03-17T13:22:02;7.05;;;5.53;;
10479;SDS011;12789;42.610;23.040;2024-03-17T13:24:30;10.63;;;6.78;;
10479;SDS011;12789;42.610;23.040;2024-03-17T13:26:57;9.70;;;6.72;;
10479;SDS011;12789;42.610;23.040;2024-03-17T13:29:28;6.22;;;5.18;;
10479;SDS011;12789;42.610;23.040;2024-03-17T13:31:55;6.13;;;5.53;;
10479;SDS011;12789;42.610;23.040;2024-03-17T13:34:21;7.15;;;6.10;;
10479;SDS011;12789;42.610;23.040;2024-03-17T13:36:52;8.70;;;6.22;;
10479;SDS011;12789;42.610;23.040;2024-03-17T13:39:19;7.80;;;5.50;;
10479;SDS011;12789;42.610;23.040;2024-03-17T13:41:47;7.20;;;5.95;;
10479;SDS011;12789;42.610;23.040;2024-03-17T13:44:14;17.38;;;7.05;;
10479;SDS011;12789;42.610;23.040;2024-03-17T13:46:41;11.00;;;7.10;;
10479;SDS011;12789;42.610;23.040;2024-03-17T13:49:07;6.57;;;5.90;;
10479;SDS011;12789;42.610;23.040;2024-03-17T13:51:34;7.70;;;4.60;;
10479;SDS011;12789;42.610;23.040;2024-03-17T13:54:01;6.22;;;5.40;;
10479;SDS011;12789;42.610;23.040;2024-03-17T13:56:28;6.97;;;5.93;;
10479;SDS011;12789;42.610;23.040;2024-03-17T13:58:56;6.50;;;5.65;;
10479;SDS011;12789;42.610;23.040;2024-03-17T14:01:22;5.53;;;5.03;;
10479;SDS011;12789;42.610;23.040;2024-03-17T14:03:49;5.82;;;5.32;;
10479;SDS011;12789;42.610;23.040;2024-03-17T14:06:15;5.82;;;5.32;;
10479;SDS011;12789;42.610;23.040;2024-03-17T14:11:45;8.98;;;7.05;;
10479;SDS011;12789;42.610;23.040;2024-03-17T14:14:13;7.32;;;6.63;;
10479;SDS011;12789;42.610;23.040;2024-03-17T14:16:40;9.35;;;6.38;;
10479;SDS011;12789;42.610;23.040;2024-03-17T14:19:07;5.90;;;5.40;;
10479;SDS011;12789;42.610;23.040;2024-03-17T14:21:34;6.45;;;5.18;;
10479;SDS011;12789;42.610;23.040;2024-03-17T14:24:01;5.50;;;5.00;;
10479;SDS011;12789;42.610;23.040;2024-03-17T14:26:32;5.22;;;4.72;;
10479;SDS011;12789;42.610;23.040;2024-03-17T14:28:58;5.15;;;4.65;;
10479;SDS011;12789;42.610;23.040;2024-03-17T14:31:29;7.53;;;6.43;;
10479;SDS011;12789;42.610;23.040;2024-03-17T14:33:56;9.00;;;7.18;;